Time;durP1;ratioP1;P1;durP2;ratioP2;P2;SDS_P1;SDS_P2;PMS_P1;PMS_P2;Temp;Humidity;BMP_temperature;BMP_pressure;BME280_temperature;BME280_humidity;BME280_pressure;Samples;Min_cycle;Max_cycle;Signal;HPM_P1;HPM_P2
2023/07/28 00:00:52;;;;;;;10.43;7.20;;;;;;;;;;5052935;28;20202;-72
2023/07/28 00:03:18;;;;;;;12.93;8.47;;;;;;;;;;5034699;28;20189;-72
2023/07/28 00:05:44;;;;;;;9.03;7.13;;;;;;;;;;5053036;28;20186;-71
2023/07/28 00:08:10;;;;;;;11.67;7.77;;;;;;;;;;5052951;28;20179;-72
2023/07/28 00:10:41;;;;;;;10.33;7.97;;;;;;;;;;5053250;28;20208;-72
2023/07/28 00:13:07;;;;;;;11.23;7.80;;;;;;;;;;5053309;28;20604;-72
2023/07/28 00:15:33;;;;;;;8.23;7.40;;;;;;;;;;5034979;28;20187;-72
2023/07/28 00:17:59;;;;;;;9.93;7.63;;;;;;;;;;5035023;28;20182;-71
2023/07/28 00:20:26;;;;;;;10.37;7.67;;;;;;;;;;5034955;28;20218;-71
2023/07/28 00:22:52;;;;;;;10.53;7.97;;;;;;;;;;5052664;28;20309;-72
2023/07/28 00:25:18;;;;;;;12.30;7.60;;;;;;;;;;5034873;28;20695;-72
2023/07/28 00:27:44;;;;;;;10.73;7.63;;;;;;;;;;5034924;28;20179;-72
2023/07/28 00:30:11;;;;;;;12.27;7.67;;;;;;;;;;5052794;28;20686;-72
2023/07/28 00:32:37;;;;;;;8.30;7.20;;;;;;;;;;5052821;28;20218;-72
2023/07/28 00:35:03;;;;;;;10.97;7.90;;;;;;;;;;5034910;28;20667;-72
2023/07/28 00:37:29;;;;;;;10.40;8.00;;;;;;;;;;5053006;28;20178;-71
2023/07/28 00:39:55;;;;;;;14.67;8.13;;;;;;;;;;5035515;28;20234;-71
2023/07/28 00:42:21;;;;;;;9.93;7.70;;;;;;;;;;5053732;28;20573;-71
2023/07/28 00:44:48;;;;;;;10.27;8.10;;;;;;;;;;5037822;28;20186;-72
2023/07/28 00:47:14;;;;;;;10.00;8.27;;;;;;;;;;5057657;28;20170;-72
2023/07/28 00:49:40;;;;;;;11.50;7.83;;;;;;;;;;5052798;28;20201;-71
2023/07/28 00:52:09;;;;;;;12.67;8.27;;;;;;;;;;5053101;28;20195;-71
2023/07/28 00:54:36;;;;;;;9.87;8.97;;;;;;;;;;5052820;28;20544;-72
2023/07/28 00:57:03;;;;;;;12.37;7.73;;;;;;;;;;5034726;28;20652;-71
2023/07/28 00:59:29;;;;;;;11.73;8.50;;;;;;;;;;5034620;28;20185;-71
2023/07/28 01:01:55;;;;;;;10.67;8.57;;;;;;;;;;5052408;28;20194;-72
2023/07/28 01:04:21;;;;;;;10.07;8.80;;;;;;;;;;5052800;28;20232;-71
2023/07/28 01:06:47;;;;;;;11.97;9.27;;;;;;;;;;5034628;28;20607;-72
2023/07/28 01:09:14;;;;;;;9.77;8.87;;;;;;;;;;5034543;28;20179;-72
2023/07/28 01:12:00;;;;;;;12.17;9.27;;;;;;;;;;5052410;28;20616;-72
2023/07/28 01:14:26;;;;;;;11.37;9.67;;;;;;;;;;5035135;28;20233;-72
2023/07/28 01:16:52;;;;;;;11.53;9.53;;;;;;;;;;5037548;28;20610;-72
2023/07/28 01:19:19;;;;;;;10.87;9.30;;;;;;;;;;5038200;28;20214;-71
2023/07/28 01:21:46;;;;;;;10.43;9.27;;;;;;;;;;5037691;28;20218;-73
2023/07/28 01:24:22;;;;;;;9.90;9.00;;;;;;;;;;5037948;28;20189;-72
2023/07/28 01:26:49;;;;;;;10.13;9.17;;;;;;;;;;5038004;28;20174;-72
2023/07/28 01:29:16;;;;;;;10.77;9.67;;;;;;;;;;5055881;28;20180;-72
2023/07/28 01:31:42;;;;;;;11.37;9.07;;;;;;;;;;5037868;28;20209;-72
2023/07/28 01:34:08;;;;;;;14.27;10.70;;;;;;;;;;5037758;28;20205;-72
2023/07/28 01:36:34;;;;;;;13.27;10.30;;;;;;;;;;5038024;28;20644;-72
2023/07/28 01:39:00;;;;;;;11.67;10.57;;;;;;;;;;5039333;28;20178;-72
2023/07/28 01:41:26;;;;;;;11.00;9.90;;;;;;;;;;5038090;28;20218;-72
2023/07/28 01:43:55;;;;;;;13.83;9.93;;;;;;;;;;5055889;28;20278;-73
2023/07/28 01:46:21;;;;;;;12.37;9.67;;;;;;;;;;5056295;28;20578;-72
2023/07/28 01:48:47;;;;;;;10.50;9.00;;;;;;;;;;5038838;28;20174;-72
2023/07/28 01:51:13;;;;;;;12.00;8.67;;;;;;;;;;5040499;28;20753;-71
2023/07/28 01:53:39;;;;;;;9.53;8.63;;;;;;;;;;5055588;28;20257;-72
2023/07/28 01:56:05;;;;;;;10.80;8.97;;;;;;;;;;5055506;28;20179;-72
2023/07/28 01:58:31;;;;;;;10.43;8.17;;;;;;;;;;5037623;28;20240;-71
2023/07/28 02:00:57;;;;;;;12.27;8.00;;;;;;;;;;5037247;28;20206;-73
2023/07/28 02:03:23;;;;;;;10.97;8.90;;;;;;;;;;5037403;28;20208;-72
2023/07/28 02:05:49;;;;;;;10.93;7.90;;;;;;;;;;5037401;28;20178;-72
2023/07/28 02:08:15;;;;;;;9.37;7.67;;;;;;;;;;5055110;28;20178;-72
2023/07/28 02:10:43;;;;;;;8.80;7.37;;;;;;;;;;5037086;28;20277;-73
2023/07/28 02:13:09;;;;;;;9.70;7.70;;;;;;;;;;5037107;28;20182;-72
2023/07/28 02:15:35;;;;;;;8.50;7.60;;;;;;;;;;5037262;28;20539;-72
2023/07/28 02:18:01;;;;;;;11.30;7.67;;;;;;;;;;5037179;28;20179;-72
2023/07/28 02:20:27;;;;;;;9.27;7.93;;;;;;;;;;5037118;28;20206;-72
2023/07/28 02:22:53;;;;;;;10.50;7.83;;;;;;;;;;5036906;28;20214;-72
2023/07/28 02:25:19;;;;;;;8.93;7.97;;;;;;;;;;5055003;28;20182;-72
2023/07/28 02:27:45;;;;;;;10.80;8.50;;;;;;;;;;5054337;28;20202;-72
2023/07/28 02:30:11;;;;;;;9.77;7.90;;;;;;;;;;5054685;28;20237;-72
2023/07/28 02:32:37;;;;;;;8.70;7.90;;;;;;;;;;5056732;28;20205;-72
2023/07/28 02:35:03;;;;;;;8.80;7.90;;;;;;;;;;5036945;28;20197;-73
2023/07/28 02:37:29;;;;;;;10.97;8.33;;;;;;;;;;5036801;28;20206;-72
2023/07/28 02:39:55;;;;;;;8.60;7.80;;;;;;;;;;5036522;28;20261;-72
2023/07/28 02:42:23;;;;;;;8.47;7.30;;;;;;;;;;5036575;28;20197;-72
2023/07/28 02:44:49;;;;;;;8.33;7.47;;;;;;;;;;5054727;28;20171;-73
2023/07/28 02:47:15;;;;;;;13.87;7.90;;;;;;;;;;5054400;28;20549;-72
2023/07/28 02:49:42;;;;;;;8.87;7.97;;;;;;;;;;5036412;28;20569;-73
2023/07/28 02:52:08;;;;;;;9.27;7.57;;;;;;;;;;5036388;28;20202;-73
2023/07/28 02:54:34;;;;;;;12.20;7.67;;;;;;;;;;5037507;28;20178;-73
2023/07/28 02:57:00;;;;;;;9.63;7.67;;;;;;;;;;5038961;28;20549;-72
2023/07/28 02:59:26;;;;;;;13.07;7.30;;;;;;;;;;5056166;28;20683;-72
2023/07/28 03:01:52;;;;;;;8.77;7.87;;;;;;;;;;5036400;28;20731;-72
2023/07/28 03:04:21;;;;;;;10.37;7.10;;;;;;;;;;5036323;28;20182;-72
2023/07/28 03:06:47;;;;;;;12.10;7.57;;;;;;;;;;5054119;28;20190;-72
2023/07/28 03:09:15;;;;;;;8.50;7.60;;;;;;;;;;5054041;28;20205;-72
2023/07/28 03:11:40;;;;;;;8.73;7.40;;;;;;;;;;5036215;28;20234;-71
2023/07/28 03:14:06;;;;;;;8.73;7.33;;;;;;;;;;5054297;28;20178;-72
2023/07/28 03:16:32;;;;;;;8.40;7.40;;;;;;;;;;5056201;28;20541;-72
2023/07/28 03:18:58;;;;;;;9.03;6.80;;;;;;;;;;5059078;28;20182;-72
2023/07/28 03:21:24;;;;;;;12.03;6.93;;;;;;;;;;5055485;28;20214;-71
2023/07/28 03:23:50;;;;;;;7.97;7.17;;;;;;;;;;5054868;28;20175;-71
2023/07/28 03:26:16;;;;;;;8.80;7.60;;;;;;;;;;5058507;28;20668;-72
2023/07/28 03:28:42;;;;;;;8.10;7.30;;;;;;;;;;5055476;28;20624;-71
2023/07/28 03:31:08;;;;;;;8.93;6.70;;;;;;;;;;5054071;28;20668;-71
2023/07/28 03:33:34;;;;;;;7.67;6.87;;;;;;;;;;5035856;28;20660;-72
2023/07/28 03:36:00;;;;;;;9.27;6.83;;;;;;;;;;5035721;28;20733;-72
2023/07/28 03:38:26;;;;;;;10.90;6.87;;;;;;;;;;5052765;28;20666;-71
2023/07/28 03:40:52;;;;;;;8.53;7.23;;;;;;;;;;5035242;28;20587;-71
2023/07/28 03:43:18;;;;;;;9.50;7.20;;;;;;;;;;5053666;28;20639;-71
2023/07/28 03:45:44;;;;;;;7.20;6.50;;;;;;;;;;5036149;28;20184;-71
2023/07/28 03:48:10;;;;;;;9.60;6.40;;;;;;;;;;5053315;28;20204;-71
2023/07/28 03:50:36;;;;;;;7.67;6.50;;;;;;;;;;5035434;28;20644;-72
2023/07/28 03:53:01;;;;;;;7.40;6.40;;;;;;;;;;5053120;28;20653;-71
2023/07/28 03:55:27;;;;;;;8.97;7.07;;;;;;;;;;5035349;28;20265;-71
2023/07/28 03:57:53;;;;;;;8.97;7.20;;;;;;;;;;5035249;28;20186;-71
2023/07/28 04:00:19;;;;;;;8.33;6.60;;;;;;;;;;5052975;28;20236;-71
2023/07/28 04:02:45;;;;;;;10.03;7.30;;;;;;;;;;5053104;28;20198;-71
2023/07/28 04:05:11;;;;;;;9.60;7.00;;;;;;;;;;5053599;28;20558;-71
2023/07/28 04:07:37;;;;;;;12.43;6.43;;;;;;;;;;5035196;28;20178;-71
2023/07/28 04:10:04;;;;;;;11.27;6.17;;;;;;;;;;5035075;28;20178;-70
2023/07/28 04:12:30;;;;;;;10.10;5.97;;;;;;;;;;5053069;28;20197;-71
2023/07/28 04:14:56;;;;;;;7.93;5.63;;;;;;;;;;5035022;28;20277;-72
2023/07/28 04:17:22;;;;;;;6.93;5.53;;;;;;;;;;5034991;28;20243;-70
2023/07/28 04:19:48;;;;;;;7.23;5.90;;;;;;;;;;5036051;28;20212;-71
2023/07/28 04:22:18;;;;;;;7.90;6.90;;;;;;;;;;5052836;28;20214;-71
2023/07/28 04:24:44;;;;;;;25.53;18.13;;;;;;;;;;5052854;28;20556;-71
2023/07/28 04:27:10;;;;;;;32.97;24.83;;;;;;;;;;5034818;28;20174;-71
2023/07/28 04:29:36;;;;;;;21.43;16.17;;;;;;;;;;5052607;28;20182;-72
2023/07/28 04:32:02;;;;;;;13.20;8.50;;;;;;;;;;5034767;28;20198;-71
2023/07/28 04:34:28;;;;;;;17.77;13.30;;;;;;;;;;5060965;22;20245;-65
2023/07/28 04:36:54;;;;;;;12.10;6.63;;;;;;;;;;5032994;28;20232;-65
2023/07/28 04:39:20;;;;;;;10.37;6.30;;;;;;;;;;5015385;28;20286;-65
2023/07/28 04:41:46;;;;;;;5.70;5.20;;;;;;;;;;5015460;28;20203;-65
2023/07/28 04:44:12;;;;;;;6.57;5.97;;;;;;;;;;5032903;28;20187;-66
2023/07/28 04:46:38;;;;;;;12.33;8.17;;;;;;;;;;5033429;28;20199;-65
2023/07/28 04:49:04;;;;;;;7.80;5.60;;;;;;;;;;5033380;28;20202;-65
2023/07/28 04:51:30;;;;;;;8.83;7.93;;;;;;;;;;5019599;28;20289;-66
2023/07/28 04:53:56;;;;;;;11.40;9.97;;;;;;;;;;5018971;28;20214;-65
2023/07/28 04:56:22;;;;;;;9.17;7.57;;;;;;;;;;5037172;28;20254;-65
2023/07/28 04:58:48;;;;;;;11.37;10.03;;;;;;;;;;5037116;28;20190;-63
2023/07/28 05:01:14;;;;;;;10.90;7.37;;;;;;;;;;5018920;28;20268;-63
2023/07/28 05:03:40;;;;;;;9.97;8.00;;;;;;;;;;5036865;28;20199;-65
2023/07/28 05:06:06;;;;;;;8.07;6.00;;;;;;;;;;5018986;28;20176;-65
2023/07/28 05:08:31;;;;;;;12.73;7.50;;;;;;;;;;5037312;28;20649;-65
2023/07/28 05:10:57;;;;;;;7.13;6.40;;;;;;;;;;5036837;28;20190;-65
2023/07/28 05:13:23;;;;;;;9.67;6.53;;;;;;;;;;5036542;28;20210;-65
2023/07/28 05:15:49;;;;;;;6.27;5.63;;;;;;;;;;5036456;28;20209;-63
2023/07/28 05:18:15;;;;;;;9.90;5.50;;;;;;;;;;5018580;28;20194;-65
2023/07/28 05:20:41;;;;;;;5.83;5.23;;;;;;;;;;5036474;28;20202;-65
2023/07/28 05:23:07;;;;;;;7.93;5.73;;;;;;;;;;5036450;28;20199;-65
2023/07/28 05:25:33;;;;;;;7.50;5.67;;;;;;;;;;5036070;28;20267;-65
2023/07/28 05:27:59;;;;;;;10.30;7.83;;;;;;;;;;5018393;28;20190;-65
2023/07/28 05:30:25;;;;;;;7.80;6.90;;;;;;;;;;5036122;28;20309;-65
2023/07/28 05:32:51;;;;;;;6.17;5.00;;;;;;;;;;5035772;28;20179;-66
2023/07/28 05:35:17;;;;;;;6.60;4.20;;;;;;;;;;5036052;28;20186;-65
2023/07/28 05:37:43;;;;;;;9.47;4.53;;;;;;;;;;5018125;28;20317;-63
2023/07/28 05:40:09;;;;;;;6.50;4.20;;;;;;;;;;5018156;28;20214;-63
2023/07/28 05:42:35;;;;;;;6.23;5.07;;;;;;;;;;5018255;28;20183;-65
2023/07/28 05:45:01;;;;;;;7.73;6.50;;;;;;;;;;5035847;28;20175;-64
2023/07/28 05:47:27;;;;;;;14.60;6.63;;;;;;;;;;5018023;28;20179;-64
2023/07/28 05:49:53;;;;;;;7.27;5.57;;;;;;;;;;5017825;28;20257;-64
2023/07/28 05:52:20;;;;;;;7.30;5.97;;;;;;;;;;5017999;28;20235;-64
2023/07/28 05:54:46;;;;;;;9.23;5.70;;;;;;;;;;5017999;28;20209;-64
2023/07/28 05:57:11;;;;;;;11.53;5.60;;;;;;;;;;5035459;28;20258;-64
2023/07/28 05:59:37;;;;;;;9.60;5.63;;;;;;;;;;5035416;28;20258;-64
2023/07/28 06:02:04;;;;;;;10.60;5.90;;;;;;;;;;5017007;28;20183;-64
2023/07/28 06:04:29;;;;;;;8.93;5.63;;;;;;;;;;5017522;28;20202;-64
2023/07/28 06:06:56;;;;;;;9.13;5.57;;;;;;;;;;5035413;28;20175;-64
2023/07/28 06:09:22;;;;;;;8.20;5.77;;;;;;;;;;5035451;28;20577;-64
2023/07/28 06:11:48;;;;;;;8.93;6.00;;;;;;;;;;5035476;28;20556;-63
2023/07/28 06:14:14;;;;;;;8.73;6.03;;;;;;;;;;5017521;28;20203;-64
2023/07/28 06:16:40;;;;;;;8.87;6.03;;;;;;;;;;5036030;28;20179;-65
2023/07/28 06:19:06;;;;;;;7.73;5.80;;;;;;;;;;5017970;28;20179;-65
2023/07/28 06:21:32;;;;;;;8.30;5.27;;;;;;;;;;5018029;28;20210;-64
2023/07/28 06:23:58;;;;;;;7.67;5.37;;;;;;;;;;5035846;28;20195;-66
2023/07/28 06:26:24;;;;;;;7.87;5.60;;;;;;;;;;5036342;28;20186;-64
2023/07/28 06:28:50;;;;;;;7.57;5.33;;;;;;;;;;5018392;28;20553;-65
2023/07/28 06:31:16;;;;;;;9.07;5.77;;;;;;;;;;5038091;28;20553;-64
2023/07/28 06:33:42;;;;;;;9.40;5.77;;;;;;;;;;5044188;28;20214;-64
2023/07/28 06:36:08;;;;;;;8.47;6.40;;;;;;;;;;5045277;28;20179;-64
2023/07/28 06:38:34;;;;;;;8.63;6.07;;;;;;;;;;5024165;28;20186;-64
2023/07/28 06:41:00;;;;;;;11.03;5.77;;;;;;;;;;5021878;28;20207;-64
2023/07/28 06:43:26;;;;;;;8.43;5.77;;;;;;;;;;5020275;28;20198;-64
2023/07/28 06:45:53;;;;;;;11.67;6.33;;;;;;;;;;5037455;28;20254;-65
2023/07/28 06:48:19;;;;;;;10.57;7.50;;;;;;;;;;5019040;28;20242;-63
2023/07/28 06:50:45;;;;;;;9.53;6.93;;;;;;;;;;5018443;28;20221;-63
2023/07/28 06:53:11;;;;;;;11.97;8.03;;;;;;;;;;5036842;28;20202;-63
2023/07/28 06:55:39;;;;;;;12.97;7.97;;;;;;;;;;5036210;28;20183;-64
2023/07/28 06:58:05;;;;;;;12.43;7.73;;;;;;;;;;5036886;28;20183;-63
2023/07/28 07:00:31;;;;;;;13.13;8.60;;;;;;;;;;5018548;28;20230;-64
2023/07/28 07:02:57;;;;;;;13.03;8.07;;;;;;;;;;5035973;28;20696;-63
2023/07/28 07:05:23;;;;;;;10.07;8.33;;;;;;;;;;5017373;28;20653;-63
2023/07/28 07:07:49;;;;;;;10.20;7.30;;;;;;;;;;5034717;28;20202;-63
2023/07/28 07:10:15;;;;;;;13.73;7.93;;;;;;;;;;5034529;28;20637;-63
2023/07/28 07:12:41;;;;;;;11.00;7.97;;;;;;;;;;5016086;28;20190;-65
2023/07/28 07:15:08;;;;;;;13.47;8.33;;;;;;;;;;5016484;28;20187;-63
2023/07/28 07:17:34;;;;;;;11.97;9.27;;;;;;;;;;5034144;28;20179;-64
2023/07/28 07:20:00;;;;;;;14.60;8.70;;;;;;;;;;5033862;28;20230;-63
2023/07/28 07:22:27;;;;;;;9.90;8.60;;;;;;;;;;5033916;28;20187;-64
2023/07/28 07:24:53;;;;;;;11.57;9.73;;;;;;;;;;5034966;28;20195;-66
2023/07/28 07:27:18;;;;;;;13.00;9.60;;;;;;;;;;5017706;28;20353;-64
2023/07/28 07:29:45;;;;;;;11.57;9.43;;;;;;;;;;5018180;28;20189;-66
2023/07/28 07:32:11;;;;;;;11.57;9.30;;;;;;;;;;5036155;28;20191;-67
2023/07/28 07:34:38;;;;;;;10.93;8.93;;;;;;;;;;5035271;28;20211;-65
2023/07/28 07:37:04;;;;;;;11.13;9.60;;;;;;;;;;5034570;28;20171;-66
2023/07/28 07:39:30;;;;;;;11.73;9.30;;;;;;;;;;5033936;28;20175;-66
2023/07/28 07:41:57;;;;;;;12.23;8.93;;;;;;;;;;5033984;28;20229;-64
2023/07/28 07:44:23;;;;;;;12.60;10.13;;;;;;;;;;5037219;28;20712;-65
2023/07/28 07:46:50;;;;;;;14.03;9.50;;;;;;;;;;5015987;28;20206;-66
2023/07/28 07:49:16;;;;;;;13.17;8.90;;;;;;;;;;5033760;28;20578;-66
2023/07/28 07:51:42;;;;;;;10.07;9.00;;;;;;;;;;5015685;28;20187;-66
2023/07/28 07:54:08;;;;;;;13.77;8.73;;;;;;;;;;5015825;28;20229;-66
2023/07/28 07:56:34;;;;;;;9.57;8.57;;;;;;;;;;5034753;28;20175;-66
2023/07/28 07:59:00;;;;;;;9.90;8.57;;;;;;;;;;5033782;28;20213;-67
2023/07/28 08:01:26;;;;;;;8.63;7.73;;;;;;;;;;5033425;28;20207;-66
2023/07/28 08:03:52;;;;;;;8.27;7.47;;;;;;;;;;5033499;28;20537;-66
2023/07/28 08:06:18;;;;;;;7.77;6.83;;;;;;;;;;5033456;28;20175;-66
2023/07/28 08:08:44;;;;;;;8.33;6.07;;;;;;;;;;5033733;28;20178;-65
2023/07/28 08:11:09;;;;;;;6.90;6.03;;;;;;;;;;5033565;28;20175;-66
2023/07/28 08:13:35;;;;;;;6.47;5.47;;;;;;;;;;5033509;28;20192;-67
2023/07/28 08:16:01;;;;;;;6.37;5.00;;;;;;;;;;5033313;28;20201;-66
2023/07/28 08:18:27;;;;;;;6.00;4.63;;;;;;;;;;5015362;28;20191;-66
2023/07/28 08:20:53;;;;;;;4.83;4.30;;;;;;;;;;5033594;28;20237;-65
2023/07/28 08:23:19;;;;;;;6.50;5.43;;;;;;;;;;5032907;28;20677;-63
2023/07/28 08:25:45;;;;;;;4.30;3.90;;;;;;;;;;5036410;28;20171;-64
2023/07/28 08:28:11;;;;;;;6.07;2.83;;;;;;;;;;5019545;28;20237;-63
2023/07/28 08:30:38;;;;;;;3.80;2.50;;;;;;;;;;5037272;28;20551;-66
2023/07/28 08:33:04;;;;;;;3.33;2.50;;;;;;;;;;5019132;28;20207;-63
2023/07/28 08:35:30;;;;;;;3.63;2.40;;;;;;;;;;5037678;28;20170;-65
2023/07/28 08:37:56;;;;;;;4.20;2.70;;;;;;;;;;5037484;28;20181;-65
2023/07/28 08:40:22;;;;;;;2.77;1.93;;;;;;;;;;5037008;28;20226;-65
2023/07/28 08:42:49;;;;;;;4.43;2.60;;;;;;;;;;5037075;28;20175;-65
2023/07/28 08:45:15;;;;;;;3.57;2.50;;;;;;;;;;5019612;28;20183;-64
2023/07/28 08:47:41;;;;;;;2.83;2.50;;;;;;;;;;5020196;28;20265;-66
2023/07/28 08:50:07;;;;;;;3.27;2.70;;;;;;;;;;5037251;28;20661;-65
2023/07/28 08:52:33;;;;;;;2.53;2.20;;;;;;;;;;5019444;28;20183;-65
2023/07/28 08:54:59;;;;;;;3.17;2.70;;;;;;;;;;5037093;28;20182;-66
2023/07/28 08:57:25;;;;;;;2.50;2.30;;;;;;;;;;5036996;28;20183;-66
2023/07/28 08:59:51;;;;;;;2.80;2.60;;;;;;;;;;5036847;28;20182;-65
2023/07/28 09:02:18;;;;;;;3.03;2.73;;;;;;;;;;5037315;28;20175;-65
2023/07/28 09:04:45;;;;;;;3.10;2.90;;;;;;;;;;5019072;28;20195;-65
2023/07/28 09:07:11;;;;;;;3.20;2.87;;;;;;;;;;5037223;28;20553;-67
2023/07/28 09:09:37;;;;;;;3.40;2.87;;;;;;;;;;5019008;28;20179;-65
2023/07/28 09:12:06;;;;;;;4.37;3.23;;;;;;;;;;5037320;28;20202;-66
2023/07/28 09:14:35;;;;;;;5.50;4.37;;;;;;;;;;5036978;28;20205;-65
2023/07/28 09:17:08;;;;;;;5.40;4.90;;;;;;;;;;5036946;28;20775;-65
2023/07/28 09:19:34;;;;;;;6.67;5.13;;;;;;;;;;5036962;28;20232;-65
2023/07/28 09:22:01;;;;;;;5.60;5.03;;;;;;;;;;5038186;28;20617;-64
2023/07/28 09:24:33;;;;;;;6.33;5.43;;;;;;;;;;5019485;28;20195;-64
2023/07/28 09:27:00;;;;;;;5.60;5.10;;;;;;;;;;5019850;28;20722;-64
2023/07/28 09:29:29;;;;;;;5.53;5.00;;;;;;;;;;5018717;28;20649;-63
2023/07/28 09:32:03;;;;;;;6.80;5.27;;;;;;;;;;5036900;28;20546;-65
2023/07/28 09:34:29;;;;;;;5.43;4.93;;;;;;;;;;5035939;28;20261;-64
2023/07/28 09:36:56;;;;;;;8.37;7.00;;;;;;;;;;5016882;28;20187;-66
2023/07/28 09:39:22;;;;;;;5.63;5.13;;;;;;;;;;5018563;28;20241;-64
2023/07/28 09:41:48;;;;;;;6.80;4.33;;;;;;;;;;5036137;28;20214;-66
2023/07/28 09:44:15;;;;;;;6.23;5.63;;;;;;;;;;5036499;28;20195;-64
2023/07/28 09:46:59;;;;;;;4.73;4.40;;;;;;;;;;5018123;28;20179;-64
2023/07/28 09:49:29;;;;;;;7.13;4.87;;;;;;;;;;5036387;28;20258;-65
2023/07/28 09:51:58;;;;;;;4.90;4.50;;;;;;;;;;5035617;28;20218;-65
2023/07/28 09:54:27;;;;;;;5.57;4.77;;;;;;;;;;5036270;28;20290;-65
2023/07/28 09:56:57;;;;;;;5.30;4.70;;;;;;;;;;5035383;28;20171;-65
2023/07/28 09:59:25;;;;;;;4.70;4.30;;;;;;;;;;5035883;28;20198;-65
2023/07/28 10:01:51;;;;;;;4.37;4.07;;;;;;;;;;5035639;28;20240;-65
2023/07/28 10:04:18;;;;;;;4.20;3.90;;;;;;;;;;5017818;28;20206;-65
2023/07/28 10:06:44;;;;;;;4.33;3.70;;;;;;;;;;5035676;28;20171;-65
2023/07/28 10:09:11;;;;;;;3.83;3.50;;;;;;;;;;5017691;28;20175;-65
2023/07/28 10:11:37;;;;;;;4.53;3.67;;;;;;;;;;5017851;28;20687;-65
2023/07/28 10:14:04;;;;;;;5.60;3.83;;;;;;;;;;5017604;28;20211;-65
2023/07/28 10:16:31;;;;;;;4.73;3.90;;;;;;;;;;5035848;28;20175;-65
2023/07/28 10:18:56;;;;;;;4.90;3.20;;;;;;;;;;5035492;28;20175;-65
2023/07/28 10:21:29;;;;;;;4.37;3.63;;;;;;;;;;5035745;28;20263;-65
2023/07/28 10:23:56;;;;;;;5.10;3.60;;;;;;;;;;5017770;28;20195;-64
2023/07/28 10:26:31;;;;;;;4.20;3.53;;;;;;;;;;5035537;28;20241;-65
2023/07/28 10:29:08;;;;;;;3.80;3.37;;;;;;;;;;5017258;28;20186;-67
2023/07/28 10:31:34;;;;;;;3.90;3.37;;;;;;;;;;5035233;28;20205;-66
2023/07/28 10:34:00;;;;;;;4.77;3.17;;;;;;;;;;5035019;28;20290;-65
2023/07/28 10:36:26;;;;;;;3.63;3.27;;;;;;;;;;5035086;28;20576;-66
2023/07/28 10:39:03;;;;;;;3.30;3.00;;;;;;;;;;5034918;28;20186;-67
2023/07/28 10:41:30;;;;;;;2.93;2.73;;;;;;;;;;5034992;28;20198;-66
2023/07/28 10:43:56;;;;;;;3.07;2.70;;;;;;;;;;5016855;28;20206;-65
2023/07/28 10:46:22;;;;;;;4.50;3.00;;;;;;;;;;5017005;28;20179;-63
2023/07/28 10:48:50;;;;;;;2.80;2.20;;;;;;;;;;5059627;22;20166;-69
2023/07/28 10:51:28;;;;;;;3.00;2.30;;;;;;;;;;5054641;28;20571;-70
2023/07/28 10:53:57;;;;;;;2.73;2.53;;;;;;;;;;5036270;28;20202;-70
2023/07/28 10:56:23;;;;;;;6.77;2.57;;;;;;;;;;5054005;28;20221;-70
2023/07/28 10:58:59;;;;;;;2.70;2.50;;;;;;;;;;5053866;28;20748;-70
2023/07/28 11:01:32;;;;;;;6.00;2.40;;;;;;;;;;5053814;28;20246;-70
2023/07/28 11:04:06;;;;;;;4.13;2.10;;;;;;;;;;5054199;28;20604;-70
2023/07/28 11:06:32;;;;;;;2.87;1.67;;;;;;;;;;5054143;28;20163;-70
2023/07/28 11:08:58;;;;;;;1.80;1.70;;;;;;;;;;5054079;28;20197;-70
2023/07/28 11:11:24;;;;;;;4.30;1.90;;;;;;;;;;5035986;28;20186;-70
2023/07/28 11:13:51;;;;;;;1.80;1.70;;;;;;;;;;5053746;28;20265;-71
2023/07/28 11:16:17;;;;;;;3.50;1.70;;;;;;;;;;5035762;28;20186;-70
2023/07/28 11:18:43;;;;;;;3.57;1.67;;;;;;;;;;5053414;28;20711;-70
2023/07/28 11:21:09;;;;;;;1.83;1.50;;;;;;;;;;5053815;28;20332;-70
2023/07/28 11:23:35;;;;;;;6.13;1.97;;;;;;;;;;5053507;28;20183;-70
2023/07/28 11:26:01;;;;;;;1.50;1.30;;;;;;;;;;5035966;28;20196;-70
2023/07/28 11:28:28;;;;;;;1.10;1.10;;;;;;;;;;5035635;28;20205;-70
2023/07/28 11:30:54;;;;;;;1.20;1.10;;;;;;;;;;5053552;28;20214;-70
2023/07/28 11:33:20;;;;;;;3.00;1.40;;;;;;;;;;5053416;28;20189;-70
2023/07/28 11:35:46;;;;;;;1.40;1.30;;;;;;;;;;5053328;28;20181;-70
2023/07/28 11:38:13;;;;;;;1.50;1.40;;;;;;;;;;5035477;28;20713;-70
2023/07/28 11:40:39;;;;;;;1.17;1.00;;;;;;;;;;5053214;28;20264;-70
2023/07/28 11:43:05;;;;;;;1.23;1.13;;;;;;;;;;5035380;28;20178;-70
2023/07/28 11:45:31;;;;;;;1.10;1.00;;;;;;;;;;5053203;28;20555;-70
2023/07/28 11:48:05;;;;;;;2.93;1.30;;;;;;;;;;5053236;28;20174;-71
2023/07/28 11:50:36;;;;;;;1.80;1.10;;;;;;;;;;5053745;28;20296;-71
2023/07/28 11:53:02;;;;;;;1.40;1.23;;;;;;;;;;5035767;28;20288;-71
2023/07/28 11:55:29;;;;;;;1.20;1.20;;;;;;;;;;5053048;28;20205;-70
2023/07/28 11:57:55;;;;;;;6.40;1.83;;;;;;;;;;5035158;28;20273;-70
2023/07/28 12:00:34;;;;;;;1.50;1.23;;;;;;;;;;5052243;28;20561;-70
2023/07/28 12:03:04;;;;;;;1.20;0.90;;;;;;;;;;5052955;28;20194;-70
2023/07/28 12:05:30;;;;;;;1.80;0.90;;;;;;;;;;5035053;28;20640;-70
2023/07/28 12:07:56;;;;;;;1.43;1.00;;;;;;;;;;5053048;28;20262;-70
2023/07/28 12:10:24;;;;;;;2.20;1.00;;;;;;;;;;5053126;28;20245;-70
2023/07/28 12:12:50;;;;;;;1.10;1.00;;;;;;;;;;5035042;28;20186;-70
2023/07/28 12:15:23;;;;;;;1.00;1.00;;;;;;;;;;5053039;28;20598;-70
2023/07/28 12:18:05;;;;;;;1.37;1.00;;;;;;;;;;5052778;28;20182;-70
2023/07/28 12:20:51;;;;;;;1.37;1.17;;;;;;;;;;5052744;28;20244;-70
2023/07/28 12:23:18;;;;;;;1.40;1.00;;;;;;;;;;5053517;28;20167;-71
2023/07/28 12:25:44;;;;;;;2.07;1.10;;;;;;;;;;5053640;28;20178;-70
2023/07/28 12:28:10;;;;;;;5.07;1.33;;;;;;;;;;5052985;28;20545;-70
2023/07/28 12:30:37;;;;;;;10.17;2.27;;;;;;;;;;5052684;28;20194;-70
2023/07/28 12:33:03;;;;;;;1.67;1.00;;;;;;;;;;5053002;28;20175;-70
2023/07/28 12:35:34;;;;;;;2.23;0.90;;;;;;;;;;5052705;28;20174;-70
2023/07/28 12:38:01;;;;;;;2.37;1.17;;;;;;;;;;5034870;28;20628;-70
2023/07/28 12:40:30;;;;;;;2.00;1.20;;;;;;;;;;5052637;28;20210;-70
2023/07/28 12:42:56;;;;;;;1.10;1.00;;;;;;;;;;5052598;28;20179;-70
2023/07/28 12:45:25;;;;;;;1.23;1.17;;;;;;;;;;5052644;28;20178;-70
2023/07/28 12:47:51;;;;;;;1.30;1.20;;;;;;;;;;5052870;28;20261;-69
2023/07/28 12:50:17;;;;;;;3.43;1.07;;;;;;;;;;5052315;28;20257;-69
2023/07/28 12:52:43;;;;;;;1.90;1.20;;;;;;;;;;5052531;28;20179;-70
2023/07/28 12:55:09;;;;;;;4.90;1.20;;;;;;;;;;5052538;28;20244;-70
2023/07/28 12:57:35;;;;;;;2.13;1.10;;;;;;;;;;5033488;28;20386;-69
2023/07/28 13:00:01;;;;;;;1.30;1.20;;;;;;;;;;5034492;28;20226;-70
2023/07/28 13:02:27;;;;;;;2.40;1.10;;;;;;;;;;5052518;28;20163;-70
2023/07/28 13:04:53;;;;;;;1.07;1.07;;;;;;;;;;5034603;28;20178;-70
2023/07/28 13:07:19;;;;;;;1.67;1.17;;;;;;;;;;5052563;28;20189;-69
2023/07/28 13:09:45;;;;;;;1.30;1.20;;;;;;;;;;5052389;28;20202;-69
2023/07/28 13:12:11;;;;;;;4.00;1.50;;;;;;;;;;5055995;28;20186;-70
2023/07/28 13:14:37;;;;;;;4.20;1.30;;;;;;;;;;5056024;28;20628;-70
2023/07/28 13:17:03;;;;;;;1.17;1.10;;;;;;;;;;5056193;28;20179;-70
2023/07/28 13:19:29;;;;;;;2.33;1.37;;;;;;;;;;5056308;28;20202;-70
2023/07/28 13:21:55;;;;;;;13.90;1.70;;;;;;;;;;5055777;28;20214;-69
2023/07/28 13:24:21;;;;;;;1.47;1.10;;;;;;;;;;5037971;28;20213;-69
2023/07/28 13:26:47;;;;;;;1.73;1.07;;;;;;;;;;5056335;28;20564;-69
2023/07/28 13:29:13;;;;;;;1.30;1.20;;;;;;;;;;5055682;28;20559;-69
2023/07/28 13:31:39;;;;;;;3.10;1.30;;;;;;;;;;5055936;28;20266;-69
2023/07/28 13:34:05;;;;;;;1.30;1.23;;;;;;;;;;5055625;28;20190;-69
2023/07/28 13:36:31;;;;;;;2.77;1.37;;;;;;;;;;5037824;28;20205;-70
2023/07/28 13:38:57;;;;;;;1.40;1.30;;;;;;;;;;5055569;28;20202;-70
2023/07/28 13:41:23;;;;;;;3.37;1.30;;;;;;;;;;5056021;28;20572;-70
2023/07/28 13:43:48;;;;;;;2.83;1.47;;;;;;;;;;5055954;28;20544;-70
2023/07/28 13:46:14;;;;;;;6.50;1.27;;;;;;;;;;5037426;28;20656;-70
2023/07/28 13:48:40;;;;;;;4.37;1.30;;;;;;;;;;5055230;28;20193;-70
2023/07/28 13:51:06;;;;;;;1.77;1.20;;;;;;;;;;5055858;28;20209;-70
2023/07/28 13:53:32;;;;;;;1.37;1.00;;;;;;;;;;5055236;28;20242;-70
2023/07/28 13:55:58;;;;;;;2.70;1.30;;;;;;;;;;5055418;28;20213;-70
2023/07/28 13:58:24;;;;;;;2.83;1.30;;;;;;;;;;5037230;28;20188;-70
2023/07/28 14:00:50;;;;;;;1.10;1.10;;;;;;;;;;5054992;28;20305;-70
2023/07/28 14:03:16;;;;;;;1.80;1.23;;;;;;;;;;5055068;28;20245;-70
2023/07/28 14:05:42;;;;;;;11.73;2.10;;;;;;;;;;5055407;28;20183;-69
2023/07/28 14:08:08;;;;;;;2.60;1.07;;;;;;;;;;5054985;28;20170;-70
2023/07/28 14:10:38;;;;;;;2.73;1.20;;;;;;;;;;5037066;28;20293;-70
2023/07/28 14:13:04;;;;;;;2.00;1.27;;;;;;;;;;5054881;28;20269;-71
2023/07/28 14:15:30;;;;;;;3.03;1.40;;;;;;;;;;5037003;28;20211;-70
2023/07/28 14:17:56;;;;;;;2.60;1.50;;;;;;;;;;5036919;28;20183;-70
2023/07/28 14:20:22;;;;;;;6.73;1.83;;;;;;;;;;5054679;28;20264;-70
2023/07/28 14:22:48;;;;;;;4.10;1.50;;;;;;;;;;5055549;28;20261;-70
2023/07/28 14:25:14;;;;;;;2.10;1.57;;;;;;;;;;5055512;28;20202;-70
2023/07/28 14:27:40;;;;;;;6.70;1.40;;;;;;;;;;5036768;28;20198;-70
2023/07/28 14:30:06;;;;;;;1.80;1.70;;;;;;;;;;5036628;28;20660;-70
2023/07/28 14:32:32;;;;;;;6.83;1.63;;;;;;;;;;5036553;28;20189;-70
2023/07/28 14:34:58;;;;;;;4.93;1.50;;;;;;;;;;5036506;28;20178;-69